sensor_id;sensor_type;location;lat;lon;timestamp;P1;durP1;ratioP1;P2;durP2;ratioP2
65936;SDS011;52707;52.086;5.418;2024-02-26T00:01:01;12.50;;;4.15;;
65936;SDS011;52707;52.086;5.418;2024-02-26T00:03:28;4.22;;;3.78;;
65936;SDS011;52707;52.086;5.418;2024-02-26T00:05:54;11.52;;;4.82;;
65936;SDS011;52707;52.086;5.418;2024-02-26T00:08:22;5.50;;;4.50;;
65936;SDS011;52707;52.086;5.418;2024-02-26T00:10:48;6.43;;;4.15;;
65936;SDS011;52707;52.086;5.418;2024-02-26T00:13:15;9.15;;;3.63;;
65936;SDS011;52707;52.086;5.418;2024-02-26T00:15:41;7.07;;;3.63;;
65936;SDS011;52707;52.086;5.418;2024-02-26T00:18:08;11.93;;;4.10;;
65936;SDS011;52707;52.086;5.418;2024-02-26T00:20:34;8.60;;;4.03;;
65936;SDS011;52707;52.086;5.418;2024-02-26T00:23:01;6.93;;;4.10;;
65936;SDS011;52707;52.086;5.418;2024-02-26T00:25:27;5.72;;;3.85;;
65936;SDS011;52707;52.086;5.418;2024-02-26T00:27:54;5.07;;;3.78;;
65936;SDS011;52707;52.086;5.418;2024-02-26T00:30:20;7.65;;;4.60;;
65936;SDS011;52707;52.086;5.418;2024-02-26T00:32:46;6.15;;;4.25;;
65936;SDS011;52707;52.086;5.418;2024-02-26T00:35:14;5.10;;;4.30;;
65936;SDS011;52707;52.086;5.418;2024-02-26T00:37:41;6.93;;;4.50;;
65936;SDS011;52707;52.086;5.418;2024-02-26T00:40:09;8.65;;;4.50;;
65936;SDS011;52707;52.086;5.418;2024-02-26T00:42:35;7.70;;;4.55;;
65936;SDS011;52707;52.086;5.418;2024-02-26T00:45:02;5.65;;;4.40;;
65936;SDS011;52707;52.086;5.418;2024-02-26T00:47:28;6.50;;;4.43;;
65936;SDS011;52707;52.086;5.418;2024-02-26T00:49:55;4.95;;;4.45;;
65936;SDS011;52707;52.086;5.418;2024-02-26T00:52:21;8.07;;;4.45;;
65936;SDS011;52707;52.086;5.418;2024-02-26T00:54:48;7.22;;;4.90;;
65936;SDS011;52707;52.086;5.418;2024-02-26T00:57:14;5.60;;;4.55;;
65936;SDS011;52707;52.086;5.418;2024-02-26T00:59:41;8.80;;;5.22;;
65936;SDS011;52707;52.086;5.418;2024-02-26T01:02:07;5.57;;;4.70;;
65936;SDS011;52707;52.086;5.418;2024-02-26T01:04:33;9.80;;;4.78;;
65936;SDS011;52707;52.086;5.418;2024-02-26T01:07:00;9.25;;;4.90;;
65936;SDS011;52707;52.086;5.418;2024-02-26T01:09:27;7.55;;;5.10;;
65936;SDS011;52707;52.086;5.418;2024-02-26T01:11:53;7.45;;;5.07;;
65936;SDS011;52707;52.086;5.418;2024-02-26T01:14:19;11.20;;;4.80;;
65936;SDS011;52707;52.086;5.418;2024-02-26T01:16:46;6.55;;;4.40;;
65936;SDS011;52707;52.086;5.418;2024-02-26T01:19:12;6.32;;;4.90;;
65936;SDS011;52707;52.086;5.418;2024-02-26T01:21:39;6.20;;;5.10;;
65936;SDS011;52707;52.086;5.418;2024-02-26T01:24:05;7.18;;;5.10;;
65936;SDS011;52707;52.086;5.418;2024-02-26T01:26:32;6.63;;;5.05;;
65936;SDS011;52707;52.086;5.418;2024-02-26T01:28:58;6.45;;;5.28;;
65936;SDS011;52707;52.086;5.418;2024-02-26T01:31:25;5.68;;;5.10;;
65936;SDS011;52707;52.086;5.418;2024-02-26T01:33:51;5.95;;;4.93;;
65936;SDS011;52707;52.086;5.418;2024-02-26T01:36:19;6.78;;;4.75;;
65936;SDS011;52707;52.086;5.418;2024-02-26T01:38:45;5.38;;;4.75;;
65936;SDS011;52707;52.086;5.418;2024-02-26T01:41:13;10.00;;;4.68;;
65936;SDS011;52707;52.086;5.418;2024-02-26T01:43:40;5.40;;;4.50;;
65936;SDS011;52707;52.086;5.418;2024-02-26T01:46:07;6.45;;;4.90;;
65936;SDS011;52707;52.086;5.418;2024-02-26T01:48:38;5.97;;;4.80;;
65936;SDS011;52707;52.086;5.418;2024-02-26T01:51:04;7.45;;;5.18;;
65936;SDS011;52707;52.086;5.418;2024-02-26T01:53:31;7.35;;;5.15;;
65936;SDS011;52707;52.086;5.418;2024-02-26T01:55:58;8.50;;;5.35;;
65936;SDS011;52707;52.086;5.418;2024-02-26T01:58:24;10.50;;;5.57;;
65936;SDS011;52707;52.086;5.418;2024-02-26T02:00:50;5.75;;;5.15;;
65936;SDS011;52707;52.086;5.418;2024-02-26T02:03:17;8.23;;;5.18;;
65936;SDS011;52707;52.086;5.418;2024-02-26T02:05:43;6.57;;;5.38;;
65936;SDS011;52707;52.086;5.418;2024-02-26T02:08:10;7.45;;;5.22;;
65936;SDS011;52707;52.086;5.418;2024-02-26T02:10:38;7.45;;;5.88;;
65936;SDS011;52707;52.086;5.418;2024-02-26T02:13:04;8.43;;;5.50;;
65936;SDS011;52707;52.086;5.418;2024-02-26T02:15:30;7.85;;;6.05;;
65936;SDS011;52707;52.086;5.418;2024-02-26T02:17:57;9.63;;;5.97;;
65936;SDS011;52707;52.086;5.418;2024-02-26T02:20:31;8.23;;;5.78;;
65936;SDS011;52707;52.086;5.418;2024-02-26T02:22:58;6.28;;;5.53;;
65936;SDS011;52707;52.086;5.418;2024-02-26T02:25:25;7.05;;;5.65;;
65936;SDS011;52707;52.086;5.418;2024-02-26T02:27:52;6.80;;;5.75;;
65936;SDS011;52707;52.086;5.418;2024-02-26T02:30:19;9.88;;;6.32;;
65936;SDS011;52707;52.086;5.418;2024-02-26T02:32:46;7.75;;;6.15;;
65936;SDS011;52707;52.086;5.418;2024-02-26T02:35:13;8.35;;;5.78;;
65936;SDS011;52707;52.086;5.418;2024-02-26T02:37:39;18.35;;;6.13;;
65936;SDS011;52707;52.086;5.418;2024-02-26T02:40:06;7.82;;;5.93;;
65936;SDS011;52707;52.086;5.418;2024-02-26T02:42:33;9.73;;;5.97;;
65936;SDS011;52707;52.086;5.418;2024-02-26T02:44:59;8.85;;;5.90;;
65936;SDS011;52707;52.086;5.418;2024-02-26T02:47:26;8.95;;;6.30;;
65936;SDS011;52707;52.086;5.418;2024-02-26T02:49:52;7.68;;;5.65;;
65936;SDS011;52707;52.086;5.418;2024-02-26T02:52:18;10.20;;;6.18;;
65936;SDS011;52707;52.086;5.418;2024-02-26T02:54:44;7.88;;;5.90;;
65936;SDS011;52707;52.086;5.418;2024-02-26T02:57:13;7.30;;;5.57;;
65936;SDS011;52707;52.086;5.418;2024-02-26T02:59:39;7.85;;;6.78;;
65936;SDS011;52707;52.086;5.418;2024-02-26T03:02:05;10.23;;;5.97;;
65936;SDS011;52707;52.086;5.418;2024-02-26T03:04:32;10.82;;;6.32;;
65936;SDS011;52707;52.086;5.418;2024-02-26T03:06:59;8.43;;;6.75;;
65936;SDS011;52707;52.086;5.418;2024-02-26T03:09:26;8.20;;;7.03;;
65936;SDS011;52707;52.086;5.418;2024-02-26T03:11:53;6.88;;;6.05;;
65936;SDS011;52707;52.086;5.418;2024-02-26T03:14:19;10.70;;;6.28;;
65936;SDS011;52707;52.086;5.418;2024-02-26T03:16:46;11.20;;;6.95;;
65936;SDS011;52707;52.086;5.418;2024-02-26T03:19:15;7.55;;;6.65;;
65936;SDS011;52707;52.086;5.418;2024-02-26T03:21:44;8.93;;;6.88;;
65936;SDS011;52707;52.086;5.418;2024-02-26T03:24:10;10.77;;;6.47;;
65936;SDS011;52707;52.086;5.418;2024-02-26T03:26:38;7.25;;;6.55;;
65936;SDS011;52707;52.086;5.418;2024-02-26T03:29:04;8.82;;;6.40;;
65936;SDS011;52707;52.086;5.418;2024-02-26T03:31:31;8.00;;;6.38;;
65936;SDS011;52707;52.086;5.418;2024-02-26T03:33:57;9.07;;;6.68;;
65936;SDS011;52707;52.086;5.418;2024-02-26T03:36:24;8.77;;;7.15;;
65936;SDS011;52707;52.086;5.418;2024-02-26T03:38:50;7.50;;;6.70;;
65936;SDS011;52707;52.086;5.418;2024-02-26T03:41:17;7.65;;;6.63;;
65936;SDS011;52707;52.086;5.418;2024-02-26T03:43:43;9.05;;;6.78;;
65936;SDS011;52707;52.086;5.418;2024-02-26T03:46:11;10.57;;;6.95;;
65936;SDS011;52707;52.086;5.418;2024-02-26T03:48:42;9.75;;;6.60;;
65936;SDS011;52707;52.086;5.418;2024-02-26T03:51:09;10.02;;;6.93;;
65936;SDS011;52707;52.086;5.418;2024-02-26T03:53:36;8.63;;;7.43;;
65936;SDS011;52707;52.086;5.418;2024-02-26T03:56:03;9.70;;;7.53;;
65936;SDS011;52707;52.086;5.418;2024-02-26T03:58:30;8.60;;;7.60;;
65936;SDS011;52707;52.086;5.418;2024-02-26T04:00:56;13.15;;;8.50;;
65936;SDS011;52707;52.086;5.418;2024-02-26T04:03:22;10.57;;;8.20;;
65936;SDS011;52707;52.086;5.418;2024-02-26T04:05:51;12.15;;;7.93;;
65936;SDS011;52707;52.086;5.418;2024-02-26T04:08:18;14.13;;;8.38;;
65936;SDS011;52707;52.086;5.418;2024-02-26T04:10:44;12.45;;;8.73;;
65936;SDS011;52707;52.086;5.418;2024-02-26T04:13:11;13.60;;;8.60;;
65936;SDS011;52707;52.086;5.418;2024-02-26T04:15:37;11.48;;;8.20;;
65936;SDS011;52707;52.086;5.418;2024-02-26T04:18:03;10.35;;;8.07;;
65936;SDS011;52707;52.086;5.418;2024-02-26T04:20:30;11.70;;;8.70;;
65936;SDS011;52707;52.086;5.418;2024-02-26T04:22:56;13.07;;;8.48;;
65936;SDS011;52707;52.086;5.418;2024-02-26T04:25:22;11.65;;;8.75;;
65936;SDS011;52707;52.086;5.418;2024-02-26T04:27:49;13.25;;;8.43;;
65936;SDS011;52707;52.086;5.418;2024-02-26T04:30:15;13.05;;;8.30;;
65936;SDS011;52707;52.086;5.418;2024-02-26T04:32:43;9.18;;;7.63;;
65936;SDS011;52707;52.086;5.418;2024-02-26T04:35:09;10.07;;;7.72;;
65936;SDS011;52707;52.086;5.418;2024-02-26T04:37:36;10.02;;;7.95;;
65936;SDS011;52707;52.086;5.418;2024-02-26T04:40:03;10.95;;;8.00;;
65936;SDS011;52707;52.086;5.418;2024-02-26T04:42:30;11.50;;;7.93;;
65936;SDS011;52707;52.086;5.418;2024-02-26T04:44:56;9.77;;;7.63;;
65936;SDS011;52707;52.086;5.418;2024-02-26T04:47:23;11.55;;;8.10;;
65936;SDS011;52707;52.086;5.418;2024-02-26T04:49:49;16.17;;;7.75;;
65936;SDS011;52707;52.086;5.418;2024-02-26T04:52:16;11.00;;;8.43;;
65936;SDS011;52707;52.086;5.418;2024-02-26T04:54:42;10.45;;;7.18;;
65936;SDS011;52707;52.086;5.418;2024-02-26T04:57:09;9.82;;;7.65;;
65936;SDS011;52707;52.086;5.418;2024-02-26T04:59:35;9.63;;;7.47;;
65936;SDS011;52707;52.086;5.418;2024-02-26T05:02:01;13.73;;;7.88;;
65936;SDS011;52707;52.086;5.418;2024-02-26T05:04:28;9.98;;;7.53;;
65936;SDS011;52707;52.086;5.418;2024-02-26T05:06:54;10.77;;;7.25;;
65936;SDS011;52707;52.086;5.418;2024-02-26T05:09:21;10.18;;;7.80;;
65936;SDS011;52707;52.086;5.418;2024-02-26T05:11:48;9.77;;;7.32;;
65936;SDS011;52707;52.086;5.418;2024-02-26T05:14:14;9.35;;;7.28;;
65936;SDS011;52707;52.086;5.418;2024-02-26T05:16:40;9.68;;;7.30;;
65936;SDS011;52707;52.086;5.418;2024-02-26T05:19:07;9.80;;;7.47;;
65936;SDS011;52707;52.086;5.418;2024-02-26T05:21:33;8.75;;;7.13;;
65936;SDS011;52707;52.086;5.418;2024-02-26T05:24:00;8.50;;;6.47;;
65936;SDS011;52707;52.086;5.418;2024-02-26T05:26:26;11.55;;;7.18;;
65936;SDS011;52707;52.086;5.418;2024-02-26T05:28:53;10.43;;;7.05;;
65936;SDS011;52707;52.086;5.418;2024-02-26T05:31:19;11.27;;;7.15;;
65936;SDS011;52707;52.086;5.418;2024-02-26T05:33:45;12.75;;;7.13;;
65936;SDS011;52707;52.086;5.418;2024-02-26T05:36:17;9.82;;;7.05;;
65936;SDS011;52707;52.086;5.418;2024-02-26T05:38:44;10.18;;;7.80;;
65936;SDS011;52707;52.086;5.418;2024-02-26T05:41:12;9.60;;;7.20;;
65936;SDS011;52707;52.086;5.418;2024-02-26T05:43:39;9.55;;;7.22;;
65936;SDS011;52707;52.086;5.418;2024-02-26T05:46:05;10.10;;;7.30;;
65936;SDS011;52707;52.086;5.418;2024-02-26T05:48:31;10.45;;;7.85;;
65936;SDS011;52707;52.086;5.418;2024-02-26T05:50:58;9.45;;;7.10;;
65936;SDS011;52707;52.086;5.418;2024-02-26T05:53:25;9.82;;;7.65;;
65936;SDS011;52707;52.086;5.418;2024-02-26T05:55:51;12.25;;;7.93;;
65936;SDS011;52707;52.086;5.418;2024-02-26T05:58:17;13.52;;;8.95;;
65936;SDS011;52707;52.086;5.418;2024-02-26T06:00:44;11.07;;;8.27;;
65936;SDS011;52707;52.086;5.418;2024-02-26T06:03:10;14.15;;;8.43;;
65936;SDS011;52707;52.086;5.418;2024-02-26T06:05:37;13.75;;;8.95;;
65936;SDS011;52707;52.086;5.418;2024-02-26T06:08:03;12.73;;;8.50;;
65936;SDS011;52707;52.086;5.418;2024-02-26T06:10:30;13.88;;;9.68;;
65936;SDS011;52707;52.086;5.418;2024-02-26T06:12:56;12.93;;;9.00;;
65936;SDS011;52707;52.086;5.418;2024-02-26T06:15:22;12.40;;;8.93;;
65936;SDS011;52707;52.086;5.418;2024-02-26T06:17:49;15.45;;;9.48;;
65936;SDS011;52707;52.086;5.418;2024-02-26T06:20:15;13.00;;;9.25;;
65936;SDS011;52707;52.086;5.418;2024-02-26T06:22:42;15.73;;;8.80;;
65936;SDS011;52707;52.086;5.418;2024-02-26T06:25:09;15.05;;;9.15;;
65936;SDS011;52707;52.086;5.418;2024-02-26T06:27:35;10.93;;;8.35;;
65936;SDS011;52707;52.086;5.418;2024-02-26T06:30:01;14.40;;;9.68;;
65936;SDS011;52707;52.086;5.418;2024-02-26T06:32:28;14.57;;;9.23;;
65936;SDS011;52707;52.086;5.418;2024-02-26T06:34:55;18.50;;;9.90;;
65936;SDS011;52707;52.086;5.418;2024-02-26T06:37:22;12.77;;;9.27;;
65936;SDS011;52707;52.086;5.418;2024-02-26T06:39:48;13.02;;;9.45;;
65936;SDS011;52707;52.086;5.418;2024-02-26T06:42:15;15.43;;;9.85;;
65936;SDS011;52707;52.086;5.418;2024-02-26T06:44:41;15.95;;;10.10;;
65936;SDS011;52707;52.086;5.418;2024-02-26T06:47:07;17.00;;;10.02;;
65936;SDS011;52707;52.086;5.418;2024-02-26T06:49:34;14.85;;;9.80;;
65936;SDS011;52707;52.086;5.418;2024-02-26T06:52:00;16.60;;;10.38;;
65936;SDS011;52707;52.086;5.418;2024-02-26T06:54:27;16.85;;;10.20;;
65936;SDS011;52707;52.086;5.418;2024-02-26T06:56:53;16.17;;;10.75;;
65936;SDS011;52707;52.086;5.418;2024-02-26T06:59:20;18.05;;;11.43;;
65936;SDS011;52707;52.086;5.418;2024-02-26T07:01:46;20.42;;;11.15;;
65936;SDS011;52707;52.086;5.418;2024-02-26T07:04:12;20.63;;;10.98;;
65936;SDS011;52707;52.086;5.418;2024-02-26T07:06:39;14.80;;;10.55;;
65936;SDS011;52707;52.086;5.418;2024-02-26T07:09:06;18.92;;;10.70;;
65936;SDS011;52707;52.086;5.418;2024-02-26T07:11:32;19.67;;;11.48;;
65936;SDS011;52707;52.086;5.418;2024-02-26T07:13:58;16.95;;;10.68;;
65936;SDS011;52707;52.086;5.418;2024-02-26T07:16:25;19.25;;;11.55;;
65936;SDS011;52707;52.086;5.418;2024-02-26T07:18:52;18.08;;;10.95;;
65936;SDS011;52707;52.086;5.418;2024-02-26T07:21:19;19.40;;;11.35;;
65936;SDS011;52707;52.086;5.418;2024-02-26T07:23:45;17.02;;;10.85;;
65936;SDS011;52707;52.086;5.418;2024-02-26T07:26:11;21.52;;;12.20;;
65936;SDS011;52707;52.086;5.418;2024-02-26T07:28:38;21.02;;;11.82;;
65936;SDS011;52707;52.086;5.418;2024-02-26T07:31:04;22.20;;;11.40;;
65936;SDS011;52707;52.086;5.418;2024-02-26T07:33:30;21.75;;;12.30;;
65936;SDS011;52707;52.086;5.418;2024-02-26T07:35:57;23.95;;;12.40;;
65936;SDS011;52707;52.086;5.418;2024-02-26T07:38:23;21.42;;;12.70;;
65936;SDS011;52707;52.086;5.418;2024-02-26T07:41:07;20.42;;;12.38;;
65936;SDS011;52707;52.086;5.418;2024-02-26T07:43:33;21.40;;;12.68;;
65936;SDS011;52707;52.086;5.418;2024-02-26T07:45:59;21.58;;;12.68;;
65936;SDS011;52707;52.086;5.418;2024-02-26T07:48:26;25.77;;;13.93;;
65936;SDS011;52707;52.086;5.418;2024-02-26T07:50:52;23.85;;;13.45;;
65936;SDS011;52707;52.086;5.418;2024-02-26T07:53:19;23.15;;;14.23;;
65936;SDS011;52707;52.086;5.418;2024-02-26T07:55:45;26.13;;;14.65;;
65936;SDS011;52707;52.086;5.418;2024-02-26T07:58:11;24.17;;;14.48;;
65936;SDS011;52707;52.086;5.418;2024-02-26T08:00:38;28.73;;;15.70;;
65936;SDS011;52707;52.086;5.418;2024-02-26T08:03:04;25.95;;;15.23;;
65936;SDS011;52707;52.086;5.418;2024-02-26T08:05:31;28.10;;;14.73;;
65936;SDS011;52707;52.086;5.418;2024-02-26T08:07:57;25.65;;;15.35;;
65936;SDS011;52707;52.086;5.418;2024-02-26T08:10:24;28.10;;;15.55;;
65936;SDS011;52707;52.086;5.418;2024-02-26T08:12:50;28.85;;;16.58;;
65936;SDS011;52707;52.086;5.418;2024-02-26T08:15:17;29.55;;;16.52;;
65936;SDS011;52707;52.086;5.418;2024-02-26T08:17:45;24.00;;;15.45;;
65936;SDS011;52707;52.086;5.418;2024-02-26T08:20:13;23.80;;;15.43;;
65936;SDS011;52707;52.086;5.418;2024-02-26T08:22:40;25.40;;;15.60;;
65936;SDS011;52707;52.086;5.418;2024-02-26T08:25:06;24.17;;;14.90;;
65936;SDS011;52707;52.086;5.418;2024-02-26T08:27:35;28.20;;;15.65;;
65936;SDS011;52707;52.086;5.418;2024-02-26T08:30:01;23.23;;;14.88;;
65936;SDS011;52707;52.086;5.418;2024-02-26T08:32:29;21.30;;;13.65;;
65936;SDS011;52707;52.086;5.418;2024-02-26T08:34:56;24.00;;;13.52;;
65936;SDS011;52707;52.086;5.418;2024-02-26T08:37:22;22.20;;;13.60;;
65936;SDS011;52707;52.086;5.418;2024-02-26T08:39:48;22.10;;;13.27;;
65936;SDS011;52707;52.086;5.418;2024-02-26T08:42:15;20.73;;;13.32;;
65936;SDS011;52707;52.086;5.418;2024-02-26T08:44:41;18.33;;;12.48;;
65936;SDS011;52707;52.086;5.418;2024-02-26T08:47:08;17.75;;;11.90;;
65936;SDS011;52707;52.086;5.418;2024-02-26T08:49:34;16.70;;;12.13;;
65936;SDS011;52707;52.086;5.418;2024-02-26T08:52:00;17.23;;;11.60;;
65936;SDS011;52707;52.086;5.418;2024-02-26T08:54:27;14.95;;;10.40;;
65936;SDS011;52707;52.086;5.418;2024-02-26T08:56:53;17.25;;;11.07;;
65936;SDS011;52707;52.086;5.418;2024-02-26T08:59:20;15.10;;;10.25;;
65936;SDS011;52707;52.086;5.418;2024-02-26T09:01:48;14.77;;;9.45;;
65936;SDS011;52707;52.086;5.418;2024-02-26T09:04:15;13.10;;;9.65;;
65936;SDS011;52707;52.086;5.418;2024-02-26T09:06:41;13.07;;;9.18;;
65936;SDS011;52707;52.086;5.418;2024-02-26T09:09:08;13.63;;;9.15;;
65936;SDS011;52707;52.086;5.418;2024-02-26T09:11:35;13.60;;;8.95;;
65936;SDS011;52707;52.086;5.418;2024-02-26T09:14:01;12.43;;;8.95;;
65936;SDS011;52707;52.086;5.418;2024-02-26T09:16:27;13.02;;;9.20;;
65936;SDS011;52707;52.086;5.418;2024-02-26T09:18:54;10.82;;;8.13;;
65936;SDS011;52707;52.086;5.418;2024-02-26T09:21:20;12.82;;;8.52;;
65936;SDS011;52707;52.086;5.418;2024-02-26T09:23:50;13.43;;;8.43;;
65936;SDS011;52707;52.086;5.418;2024-02-26T09:26:17;11.68;;;8.48;;
65936;SDS011;52707;52.086;5.418;2024-02-26T09:28:46;14.35;;;8.95;;
65936;SDS011;52707;52.086;5.418;2024-02-26T09:31:12;9.48;;;7.35;;
65936;SDS011;52707;52.086;5.418;2024-02-26T09:33:38;11.43;;;8.02;;
65936;SDS011;52707;52.086;5.418;2024-02-26T09:36:05;12.20;;;8.18;;
65936;SDS011;52707;52.086;5.418;2024-02-26T09:38:32;11.60;;;7.97;;
65936;SDS011;52707;52.086;5.418;2024-02-26T09:41:15;14.52;;;7.65;;
65936;SDS011;52707;52.086;5.418;2024-02-26T09:43:44;10.90;;;7.65;;
65936;SDS011;52707;52.086;5.418;2024-02-26T09:46:12;11.25;;;7.80;;
65936;SDS011;52707;52.086;5.418;2024-02-26T09:48:39;12.50;;;7.70;;
65936;SDS011;52707;52.086;5.418;2024-02-26T09:51:06;9.75;;;7.57;;
65936;SDS011;52707;52.086;5.418;2024-02-26T09:53:33;13.18;;;7.47;;
65936;SDS011;52707;52.086;5.418;2024-02-26T09:55:59;9.75;;;6.85;;
65936;SDS011;52707;52.086;5.418;2024-02-26T09:58:28;9.00;;;7.20;;
65936;SDS011;52707;52.086;5.418;2024-02-26T10:00:58;11.88;;;7.53;;
65936;SDS011;52707;52.086;5.418;2024-02-26T10:03:28;12.13;;;7.65;;
65936;SDS011;52707;52.086;5.418;2024-02-26T10:08:24;10.30;;;7.25;;
65936;SDS011;52707;52.086;5.418;2024-02-26T10:10:51;10.82;;;6.50;;
65936;SDS011;52707;52.086;5.418;2024-02-26T10:13:17;11.35;;;7.38;;
65936;SDS011;52707;52.086;5.418;2024-02-26T10:15:45;10.95;;;7.20;;
65936;SDS011;52707;52.086;5.418;2024-02-26T10:18:12;9.13;;;6.78;;
65936;SDS011;52707;52.086;5.418;2024-02-26T10:20:38;10.48;;;7.82;;
65936;SDS011;52707;52.086;5.418;2024-02-26T10:23:05;11.23;;;7.40;;
65936;SDS011;52707;52.086;5.418;2024-02-26T10:25:31;11.18;;;7.22;;
65936;SDS011;52707;52.086;5.418;2024-02-26T10:28:01;10.38;;;7.38;;
65936;SDS011;52707;52.086;5.418;2024-02-26T10:30:31;8.85;;;6.68;;
65936;SDS011;52707;52.086;5.418;2024-02-26T10:32:57;14.70;;;6.63;;
65936;SDS011;52707;52.086;5.418;2024-02-26T10:35:25;10.05;;;7.70;;
65936;SDS011;52707;52.086;5.418;2024-02-26T10:37:52;9.63;;;6.72;;
65936;SDS011;52707;52.086;5.418;2024-02-26T10:40:19;10.60;;;6.53;;
65936;SDS011;52707;52.086;5.418;2024-02-26T10:42:46;12.30;;;7.30;;
65936;SDS011;52707;52.086;5.418;2024-02-26T10:45:12;10.02;;;7.05;;
65936;SDS011;52707;52.086;5.418;2024-02-26T10:47:39;13.00;;;7.57;;
65936;SDS011;52707;52.086;5.418;2024-02-26T10:50:06;10.15;;;7.35;;
65936;SDS011;52707;52.086;5.418;2024-02-26T10:52:33;11.82;;;7.20;;
65936;SDS011;52707;52.086;5.418;2024-02-26T10:55:04;9.70;;;6.97;;
65936;SDS011;52707;52.086;5.418;2024-02-26T10:57:31;11.43;;;6.63;;
65936;SDS011;52707;52.086;5.418;2024-02-26T10:59:59;9.07;;;6.65;;
65936;SDS011;52707;52.086;5.418;2024-02-26T11:02:26;10.02;;;7.47;;
65936;SDS011;52707;52.086;5.418;2024-02-26T11:04:53;10.80;;;6.80;;
65936;SDS011;52707;52.086;5.418;2024-02-26T11:07:20;8.75;;;6.68;;
65936;SDS011;52707;52.086;5.418;2024-02-26T11:09:46;10.40;;;6.78;;
65936;SDS011;52707;52.086;5.418;2024-02-26T11:12:18;12.02;;;6.72;;
65936;SDS011;52707;52.086;5.418;2024-02-26T11:14:45;10.20;;;6.00;;
65936;SDS011;52707;52.086;5.418;2024-02-26T11:17:12;8.38;;;6.20;;
65936;SDS011;52707;52.086;5.418;2024-02-26T11:19:39;9.55;;;6.50;;
65936;SDS011;52707;52.086;5.418;2024-02-26T11:22:07;7.65;;;6.22;;
65936;SDS011;52707;52.086;5.418;2024-02-26T11:24:46;8.38;;;6.18;;
65936;SDS011;52707;52.086;5.418;2024-02-26T11:27:12;8.27;;;6.20;;
65936;SDS011;52707;52.086;5.418;2024-02-26T11:29:41;10.55;;;6.63;;
65936;SDS011;52707;52.086;5.418;2024-02-26T11:32:09;9.07;;;6.10;;
65936;SDS011;52707;52.086;5.418;2024-02-26T11:34:36;7.93;;;6.20;;
65936;SDS011;52707;52.086;5.418;2024-02-26T11:37:09;9.27;;;6.30;;
65936;SDS011;52707;52.086;5.418;2024-02-26T11:39:36;8.18;;;6.18;;
65936;SDS011;52707;52.086;5.418;2024-02-26T11:42:05;8.15;;;5.80;;
65936;SDS011;52707;52.086;5.418;2024-02-26T11:44:32;9.07;;;6.68;;
65936;SDS011;52707;52.086;5.418;2024-02-26T11:46:58;8.73;;;6.90;;
65936;SDS011;52707;52.086;5.418;2024-02-26T11:51:52;8.70;;;6.90;;
65936;SDS011;52707;52.086;5.418;2024-02-26T11:54:40;10.23;;;6.90;;
65936;SDS011;52707;52.086;5.418;2024-02-26T11:57:19;16.10;;;7.38;;
65936;SDS011;52707;52.086;5.418;2024-02-26T11:59:46;11.98;;;6.55;;
65936;SDS011;52707;52.086;5.418;2024-02-26T12:02:12;7.13;;;6.10;;
65936;SDS011;52707;52.086;5.418;2024-02-26T12:04:39;12.55;;;7.18;;
65936;SDS011;52707;52.086;5.418;2024-02-26T12:07:05;10.52;;;6.82;;
65936;SDS011;52707;52.086;5.418;2024-02-26T12:09:33;11.68;;;7.00;;
65936;SDS011;52707;52.086;5.418;2024-02-26T12:12:06;9.73;;;6.85;;
65936;SDS011;52707;52.086;5.418;2024-02-26T12:14:34;7.93;;;6.40;;
65936;SDS011;52707;52.086;5.418;2024-02-26T12:17:00;10.07;;;6.93;;
65936;SDS011;52707;52.086;5.418;2024-02-26T12:19:27;10.80;;;6.85;;
65936;SDS011;52707;52.086;5.418;2024-02-26T12:21:53;9.45;;;6.47;;
65936;SDS011;52707;52.086;5.418;2024-02-26T12:24:21;9.43;;;7.03;;
65936;SDS011;52707;52.086;5.418;2024-02-26T12:26:47;8.73;;;6.70;;
65936;SDS011;52707;52.086;5.418;2024-02-26T12:29:14;8.48;;;6.47;;
65936;SDS011;52707;52.086;5.418;2024-02-26T12:31:40;9.23;;;6.32;;
65936;SDS011;52707;52.086;5.418;2024-02-26T12:34:07;10.02;;;6.57;;
65936;SDS011;52707;52.086;5.418;2024-02-26T12:36:36;8.98;;;6.03;;
65936;SDS011;52707;52.086;5.418;2024-02-26T12:39:02;8.73;;;5.95;;
65936;SDS011;52707;52.086;5.418;2024-02-26T12:41:32;7.10;;;5.63;;
65936;SDS011;52707;52.086;5.418;2024-02-26T12:43:59;6.93;;;5.57;;
65936;SDS011;52707;52.086;5.418;2024-02-26T12:46:25;9.18;;;6.07;;
65936;SDS011;52707;52.086;5.418;2024-02-26T12:48:51;6.18;;;5.53;;
65936;SDS011;52707;52.086;5.418;2024-02-26T12:51:18;7.90;;;6.10;;
65936;SDS011;52707;52.086;5.418;2024-02-26T12:53:45;7.15;;;6.03;;
65936;SDS011;52707;52.086;5.418;2024-02-26T12:56:12;10.63;;;6.28;;
65936;SDS011;52707;52.086;5.418;2024-02-26T12:58:38;8.30;;;5.95;;
65936;SDS011;52707;52.086;5.418;2024-02-26T13:01:05;7.68;;;5.90;;
65936;SDS011;52707;52.086;5.418;2024-02-26T13:03:32;11.48;;;6.50;;
65936;SDS011;52707;52.086;5.418;2024-02-26T13:06:00;9.95;;;6.90;;
65936;SDS011;52707;52.086;5.418;2024-02-26T13:08:28;7.70;;;5.88;;
65936;SDS011;52707;52.086;5.418;2024-02-26T13:10:54;9.00;;;6.25;;
65936;SDS011;52707;52.086;5.418;2024-02-26T13:13:21;8.18;;;5.60;;
65936;SDS011;52707;52.086;5.418;2024-02-26T13:15:48;8.70;;;6.13;;
65936;SDS011;52707;52.086;5.418;2024-02-26T13:18:14;7.00;;;5.63;;
65936;SDS011;52707;52.086;5.418;2024-02-26T13:20:41;6.28;;;5.60;;
65936;SDS011;52707;52.086;5.418;2024-02-26T13:23:10;8.55;;;6.40;;
65936;SDS011;52707;52.086;5.418;2024-02-26T13:25:37;11.63;;;6.88;;
65936;SDS011;52707;52.086;5.418;2024-02-26T13:28:09;6.20;;;5.55;;
65936;SDS011;52707;52.086;5.418;2024-02-26T13:30:36;8.68;;;6.20;;
65936;SDS011;52707;52.086;5.418;2024-02-26T13:33:12;8.30;;;5.68;;
65936;SDS011;52707;52.086;5.418;2024-02-26T13:35:39;10.75;;;6.55;;
65936;SDS011;52707;52.086;5.418;2024-02-26T13:38:05;6.65;;;5.32;;
65936;SDS011;52707;52.086;5.418;2024-02-26T13:40:32;7.15;;;5.90;;
65936;SDS011;52707;52.086;5.418;2024-02-26T13:42:59;10.20;;;6.20;;
65936;SDS011;52707;52.086;5.418;2024-02-26T13:45:25;9.23;;;5.97;;
65936;SDS011;52707;52.086;5.418;2024-02-26T13:47:54;8.43;;;6.28;;
65936;SDS011;52707;52.086;5.418;2024-02-26T13:50:27;8.30;;;5.82;;
65936;SDS011;52707;52.086;5.418;2024-02-26T13:52:53;8.60;;;6.30;;
65936;SDS011;52707;52.086;5.418;2024-02-26T13:55:22;10.48;;;6.00;;
65936;SDS011;52707;52.086;5.418;2024-02-26T13:57:50;8.85;;;6.00;;
65936;SDS011;52707;52.086;5.418;2024-02-26T14:00:18;9.73;;;5.85;;
65936;SDS011;52707;52.086;5.418;2024-02-26T14:02:44;7.28;;;5.68;;
65936;SDS011;52707;52.086;5.418;2024-02-26T14:05:13;8.43;;;5.18;;
65936;SDS011;52707;52.086;5.418;2024-02-26T14:07:39;6.35;;;5.65;;
65936;SDS011;52707;52.086;5.418;2024-02-26T14:10:06;8.45;;;5.10;;
65936;SDS011;52707;52.086;5.418;2024-02-26T14:12:33;9.15;;;5.60;;
65936;SDS011;52707;52.086;5.418;2024-02-26T14:15:00;6.22;;;5.38;;
65936;SDS011;52707;52.086;5.418;2024-02-26T14:17:29;7.97;;;5.05;;
65936;SDS011;52707;52.086;5.418;2024-02-26T14:19:56;6.95;;;5.22;;
65936;SDS011;52707;52.086;5.418;2024-02-26T14:22:22;6.15;;;5.20;;
65936;SDS011;52707;52.086;5.418;2024-02-26T14:24:49;7.28;;;5.28;;
65936;SDS011;52707;52.086;5.418;2024-02-26T14:27:15;6.75;;;5.28;;
65936;SDS011;52707;52.086;5.418;2024-02-26T14:29:43;7.28;;;5.07;;
65936;SDS011;52707;52.086;5.418;2024-02-26T14:32:09;5.13;;;4.63;;
65936;SDS011;52707;52.086;5.418;2024-02-26T14:34:36;6.30;;;4.72;;
65936;SDS011;52707;52.086;5.418;2024-02-26T14:37:03;5.85;;;4.85;;
65936;SDS011;52707;52.086;5.418;2024-02-26T14:39:33;10.68;;;5.30;;
65936;SDS011;52707;52.086;5.418;2024-02-26T14:41:59;6.78;;;4.70;;